Time;durP1;ratioP1;P1;durP2;ratioP2;P2;SDS_P1;SDS_P2;PMS_P1;PMS_P2;Temp;Humidity;BMP_temperature;BMP_pressure;BME280_temperature;BME280_humidity;BME280_pressure;Samples;Min_cycle;Max_cycle;Signal;HPM_P1;HPM_P2
2023/11/14 00:02:12;;;;;;;35.75;5.30;;;11.10;99.90;;;;;;5030847;28;20022;-74
2023/11/14 00:04:38;;;;;;;45.47;5.28;;;11.10;99.90;;;;;;5031706;28;20029;-72
2023/11/14 00:07:05;;;;;;;33.28;4.88;;;11.10;99.90;;;;;;5030331;28;20041;-71
2023/11/14 00:09:32;;;;;;;34.05;4.88;;;11.10;99.90;;;;;;5030242;28;20025;-71
2023/11/14 00:11:57;;;;;;;28.92;4.32;;;11.10;99.90;;;;;;5030239;28;20026;-73
2023/11/14 00:14:24;;;;;;;31.98;4.85;;;11.10;99.90;;;;;;5030543;28;20030;-75
2023/11/14 00:16:49;;;;;;;32.97;4.43;;;11.10;99.90;;;;;;5030997;28;20053;-71
2023/11/14 00:19:15;;;;;;;38.35;5.78;;;11.10;99.90;;;;;;5037587;28;20374;-73
2023/11/14 00:21:41;;;;;;;33.97;4.63;;;11.10;99.90;;;;;;5030202;28;20034;-72
2023/11/14 00:24:09;;;;;;;31.70;5.78;;;11.20;99.90;;;;;;5030199;28;20041;-73
2023/11/14 00:26:35;;;;;;;38.47;5.05;;;11.10;99.90;;;;;;5032190;28;20026;-75
2023/11/14 00:29:00;;;;;;;30.48;4.55;;;11.20;99.90;;;;;;5035236;28;20057;-76
2023/11/14 00:31:26;;;;;;;36.95;4.97;;;11.20;99.90;;;;;;5034341;28;20026;-73
2023/11/14 00:33:52;;;;;;;36.10;4.70;;;11.20;99.90;;;;;;5040506;28;20034;-74
2023/11/14 00:36:19;;;;;;;37.83;4.80;;;11.20;99.90;;;;;;5033724;28;20033;-73
2023/11/14 00:38:44;;;;;;;38.83;4.95;;;11.20;99.90;;;;;;5034288;28;20033;-75
2023/11/14 00:41:10;;;;;;;41.42;4.75;;;11.20;99.90;;;;;;5040792;28;20064;-73
2023/11/14 00:43:35;;;;;;;38.83;5.35;;;11.20;99.90;;;;;;5034277;28;20038;-74
2023/11/14 00:46:01;;;;;;;36.83;4.50;;;11.30;99.90;;;;;;5034339;28;20026;-74
2023/11/14 00:48:27;;;;;;;36.17;4.65;;;11.30;99.90;;;;;;5041153;28;20022;-73
2023/11/14 00:50:53;;;;;;;39.95;5.07;;;11.40;99.90;;;;;;5034150;28;20021;-72
2023/11/14 00:53:21;;;;;;;28.77;4.45;;;11.40;99.90;;;;;;5034193;28;20048;-72
2023/11/14 00:55:47;;;;;;;21.45;3.53;;;11.40;99.90;;;;;;5034261;28;20543;-75
2023/11/14 00:58:12;;;;;;;35.97;4.53;;;11.40;99.90;;;;;;5033308;28;20018;-75
2023/11/14 01:00:38;;;;;;;28.98;4.13;;;11.40;99.90;;;;;;5033961;28;20040;-72
2023/11/14 01:03:04;;;;;;;31.48;4.93;;;11.40;99.90;;;;;;5033727;28;20037;-73
2023/11/14 01:05:30;;;;;;;27.02;4.55;;;11.40;99.90;;;;;;5035648;28;20023;-74
2023/11/14 01:07:55;;;;;;;42.40;5.32;;;11.40;99.90;;;;;;5039735;28;20052;-73
2023/11/14 01:10:21;;;;;;;40.03;5.18;;;11.50;99.90;;;;;;5033656;28;20056;-71
2023/11/14 01:12:47;;;;;;;25.73;3.90;;;11.40;99.90;;;;;;5033098;28;20010;-74
2023/11/14 01:15:13;;;;;;;33.85;5.63;;;11.40;99.90;;;;;;5033761;28;20053;-74
2023/11/14 01:17:40;;;;;;;32.45;4.85;;;11.50;99.90;;;;;;5034607;28;20132;-76
2023/11/14 01:20:06;;;;;;;38.95;4.75;;;11.50;99.90;;;;;;5033639;28;20055;-74
2023/11/14 01:22:32;;;;;;;35.35;4.80;;;11.50;99.90;;;;;;5039599;28;20037;-73
2023/11/14 01:24:58;;;;;;;38.25;4.68;;;11.50;99.90;;;;;;5033204;28;20030;-75
2023/11/14 01:27:24;;;;;;;29.45;4.35;;;11.50;99.90;;;;;;5033533;28;20010;-74
2023/11/14 01:29:51;;;;;;;43.45;4.68;;;11.40;99.90;;;;;;5033934;28;20032;-75
2023/11/14 01:32:17;;;;;;;25.92;4.53;;;11.50;99.90;;;;;;5033021;28;20041;-74
2023/11/14 01:34:43;;;;;;;43.25;4.97;;;11.50;99.90;;;;;;5033377;28;20478;-76
2023/11/14 01:37:09;;;;;;;37.78;5.28;;;11.50;99.90;;;;;;5033954;28;20428;-74
2023/11/14 01:39:34;;;;;;;29.48;4.30;;;11.40;99.90;;;;;;5032647;28;20478;-76
2023/11/14 01:42:00;;;;;;;27.98;4.22;;;11.40;99.90;;;;;;5033628;28;20053;-73
2023/11/14 01:44:26;;;;;;;32.65;4.68;;;11.40;99.90;;;;;;5040375;28;20025;-74
2023/11/14 01:46:55;;;;;;;38.55;4.40;;;11.50;99.90;;;;;;5033065;28;20029;-74
2023/11/14 01:49:22;;;;;;;35.03;4.70;;;11.40;99.90;;;;;;5034876;28;20025;-74
2023/11/14 01:51:48;;;;;;;34.67;5.40;;;11.50;99.90;;;;;;5033142;28;20025;-73
2023/11/14 01:54:16;;;;;;;28.17;4.70;;;11.50;99.90;;;;;;5032828;28;20176;-73
2023/11/14 01:56:42;;;;;;;29.02;4.47;;;11.50;99.90;;;;;;5031646;28;20715;-74
2023/11/14 01:59:09;;;;;;;26.38;4.00;;;11.50;99.90;;;;;;5033170;28;20033;-75
2023/11/14 02:01:34;;;;;;;30.55;4.00;;;11.50;99.90;;;;;;5032724;28;20026;-73
2023/11/14 02:04:05;;;;;;;36.53;4.72;;;11.50;99.90;;;;;;5032191;28;20163;-72
2023/11/14 02:06:32;;;;;;;33.13;3.90;;;11.50;99.90;;;;;;5031906;28;20025;-73
2023/11/14 02:08:58;;;;;;;27.88;3.63;;;11.60;99.90;;;;;;5038943;28;20021;-75
2023/11/14 02:11:24;;;;;;;36.92;5.00;;;11.40;99.90;;;;;;5037074;28;20033;-76
2023/11/14 02:13:49;;;;;;;34.22;3.83;;;11.50;99.90;;;;;;5029992;28;20026;-74
2023/11/14 02:16:15;;;;;;;31.77;4.63;;;11.50;99.90;;;;;;5032530;28;20045;-72
2023/11/14 02:18:41;;;;;;;28.73;4.00;;;11.50;99.90;;;;;;5030960;28;20044;-74
2023/11/14 02:21:07;;;;;;;35.97;5.00;;;11.40;99.90;;;;;;5030503;28;20041;-75
2023/11/14 02:23:36;;;;;;;36.47;4.65;;;11.50;99.90;;;;;;5030975;28;20065;-74
2023/11/14 02:26:01;;;;;;;30.52;4.28;;;11.40;99.90;;;;;;5030920;28;20041;-72
2023/11/14 02:28:27;;;;;;;37.95;4.40;;;11.40;99.90;;;;;;5031298;28;20068;-74
2023/11/14 02:30:53;;;;;;;31.88;4.25;;;11.40;99.90;;;;;;5029426;28;20032;-74
2023/11/14 02:33:19;;;;;;;31.10;3.95;;;11.50;99.90;;;;;;5032242;28;20433;-75
2023/11/14 02:35:46;;;;;;;33.60;5.10;;;11.40;99.90;;;;;;5030673;28;20041;-73
2023/11/14 02:38:12;;;;;;;24.30;3.67;;;11.40;99.90;;;;;;5031490;28;20053;-73
2023/11/14 02:40:37;;;;;;;26.42;4.28;;;11.50;99.90;;;;;;5031363;28;20075;-74
2023/11/14 02:43:03;;;;;;;23.83;3.78;;;11.40;99.90;;;;;;5030616;28;20115;-74
2023/11/14 02:45:29;;;;;;;29.38;4.30;;;11.50;99.90;;;;;;5031136;28;20043;-75
2023/11/14 02:47:55;;;;;;;34.85;5.03;;;11.50;99.90;;;;;;5030874;28;20029;-75
2023/11/14 02:50:52;;;;;;;21.88;3.72;;;11.50;99.90;;;;;;5034875;28;20026;-72
2023/11/14 02:53:21;;;;;;;27.35;4.68;;;11.50;99.90;;;;;;5032855;28;20052;-75
2023/11/14 02:55:51;;;;;;;35.78;4.28;;;11.40;99.90;;;;;;5030127;28;20025;-75
2023/11/14 02:58:17;;;;;;;34.88;4.65;;;11.40;99.90;;;;;;5030429;28;20504;-72
2023/11/14 03:00:51;;;;;;;28.30;4.35;;;11.40;99.90;;;;;;5030563;28;20034;-71
2023/11/14 03:03:18;;;;;;;24.40;3.80;;;11.50;99.90;;;;;;5030184;28;20042;-74
2023/11/14 03:05:45;;;;;;;30.48;4.32;;;11.40;99.90;;;;;;5031747;28;20034;-74
2023/11/14 03:08:11;;;;;;;29.98;4.78;;;11.40;99.90;;;;;;5031052;28;20556;-73
2023/11/14 03:10:37;;;;;;;29.38;4.28;;;11.40;99.90;;;;;;5029689;28;20034;-75
2023/11/14 03:13:04;;;;;;;39.65;4.97;;;11.30;99.90;;;;;;5030839;28;20030;-74
2023/11/14 03:15:30;;;;;;;38.65;5.35;;;11.20;99.90;;;;;;5030903;28;20054;-77
2023/11/14 03:17:56;;;;;;;31.85;4.50;;;11.10;99.90;;;;;;5028920;28;20470;-76
2023/11/14 03:20:22;;;;;;;39.78;5.05;;;11.00;99.90;;;;;;5030942;28;20084;-73
2023/11/14 03:22:49;;;;;;;23.98;4.10;;;10.90;99.90;;;;;;5030974;28;20383;-72
2023/11/14 03:25:16;;;;;;;23.25;4.15;;;10.80;99.90;;;;;;5030995;28;20026;-71
2023/11/14 03:27:42;;;;;;;27.85;4.78;;;10.80;99.90;;;;;;5030114;28;20017;-73
2023/11/14 03:30:08;;;;;;;38.72;4.90;;;10.70;99.90;;;;;;5029863;28;20052;-73
2023/11/14 03:32:34;;;;;;;29.77;3.92;;;10.70;99.90;;;;;;5030310;28;20028;-71
2023/11/14 03:35:04;;;;;;;28.50;4.97;;;10.70;99.90;;;;;;5029742;28;20034;-72
2023/11/14 03:37:30;;;;;;;36.35;5.47;;;10.70;99.90;;;;;;5029388;28;20448;-73
2023/11/14 03:39:56;;;;;;;43.30;5.97;;;10.70;99.90;;;;;;5030195;28;20094;-73
2023/11/14 03:42:21;;;;;;;40.85;4.70;;;10.70;99.90;;;;;;5031916;28;20069;-74
2023/11/14 03:44:47;;;;;;;32.33;5.47;;;10.70;99.90;;;;;;5030007;28;20025;-74
2023/11/14 03:47:13;;;;;;;28.85;4.45;;;10.70;99.90;;;;;;5030259;28;20029;-72
2023/11/14 03:49:39;;;;;;;36.83;4.63;;;10.70;99.90;;;;;;5030460;28;20482;-74
2023/11/14 03:52:06;;;;;;;29.52;4.18;;;10.70;99.90;;;;;;5028754;28;20034;-74
2023/11/14 03:54:32;;;;;;;25.55;3.42;;;10.70;99.90;;;;;;5029334;28;20026;-74
2023/11/14 03:56:57;;;;;;;31.48;4.65;;;10.70;99.90;;;;;;5029847;28;20045;-72
2023/11/14 03:59:23;;;;;;;30.45;4.53;;;10.70;99.90;;;;;;5030115;28;20065;-73
2023/11/14 04:01:49;;;;;;;40.22;5.40;;;10.70;99.90;;;;;;5029202;28;20029;-73
2023/11/14 04:04:15;;;;;;;24.80;4.00;;;10.80;99.90;;;;;;5030126;28;20041;-74
2023/11/14 04:06:40;;;;;;;33.05;4.40;;;10.80;99.90;;;;;;5028706;28;20421;-72
2023/11/14 04:09:06;;;;;;;26.50;3.80;;;10.80;99.90;;;;;;5029966;28;20093;-71
2023/11/14 04:11:32;;;;;;;27.83;4.38;;;10.80;99.90;;;;;;5029514;28;20032;-73
2023/11/14 04:13:58;;;;;;;29.40;3.33;;;10.90;99.90;;;;;;5030478;28;20022;-71
2023/11/14 04:16:23;;;;;;;19.88;3.53;;;10.90;99.90;;;;;;5029718;28;20065;-72
2023/11/14 04:18:49;;;;;;;24.52;3.75;;;10.90;99.90;;;;;;5029255;28;20029;-76
2023/11/14 04:21:19;;;;;;;24.20;3.95;;;10.90;99.90;;;;;;5029740;28;20108;-72
2023/11/14 04:23:48;;;;;;;25.52;4.68;;;10.90;99.90;;;;;;5030007;28;20037;-73
2023/11/14 04:26:17;;;;;;;27.60;4.10;;;10.90;99.90;;;;;;5029374;28;20105;-78
2023/11/14 04:28:42;;;;;;;32.13;4.20;;;11.00;99.90;;;;;;5029986;28;20029;-72
2023/11/14 04:31:08;;;;;;;22.27;3.75;;;11.00;99.90;;;;;;5029152;28;20044;-75
2023/11/14 04:33:34;;;;;;;24.65;3.83;;;10.90;99.90;;;;;;5029248;28;20175;-73
2023/11/14 04:36:00;;;;;;;34.05;5.30;;;10.90;99.90;;;;;;5029199;28;20026;-72
2023/11/14 04:38:25;;;;;;;20.27;3.22;;;10.90;99.90;;;;;;5033994;28;20080;-72
2023/11/14 04:40:51;;;;;;;23.55;3.28;;;11.00;99.90;;;;;;5034093;28;20064;-74
2023/11/14 04:43:17;;;;;;;28.67;4.32;;;11.00;99.90;;;;;;5030008;28;20506;-71
2023/11/14 04:45:43;;;;;;;33.05;4.80;;;11.00;99.90;;;;;;5044558;28;20028;-74
2023/11/14 04:48:11;;;;;;;28.58;4.18;;;11.10;99.90;;;;;;5034953;28;20026;-72
2023/11/14 04:50:37;;;;;;;23.45;3.50;;;11.00;99.90;;;;;;5030149;28;20073;-73
2023/11/14 04:53:03;;;;;;;37.83;3.95;;;11.00;99.90;;;;;;5029804;28;20096;-72
2023/11/14 04:55:29;;;;;;;29.70;4.55;;;11.00;99.90;;;;;;5029854;28;20172;-74
2023/11/14 04:57:55;;;;;;;28.20;4.35;;;11.00;99.90;;;;;;5029615;28;20025;-75
2023/11/14 05:00:21;;;;;;;25.25;3.53;;;11.00;99.90;;;;;;5030778;28;20018;-72
2023/11/14 05:02:47;;;;;;;18.80;3.08;;;11.00;99.90;;;;;;5029662;28;20064;-76
2023/11/14 05:05:13;;;;;;;34.05;4.38;;;11.00;99.90;;;;;;5030312;28;20018;-72
2023/11/14 05:07:40;;;;;;;28.80;4.22;;;11.10;99.90;;;;;;5029586;28;20017;-71
2023/11/14 05:10:06;;;;;;;20.85;3.60;;;11.10;99.90;;;;;;5029668;28;20052;-74
2023/11/14 05:12:32;;;;;;;34.42;4.18;;;11.10;99.90;;;;;;5030148;28;20018;-72
2023/11/14 05:14:58;;;;;;;22.67;3.72;;;11.00;99.90;;;;;;5032752;28;20105;-72
2023/11/14 05:17:23;;;;;;;18.77;3.53;;;11.10;99.90;;;;;;5032611;28;20029;-76
2023/11/14 05:19:50;;;;;;;24.80;3.25;;;11.10;99.90;;;;;;5037469;28;20060;-75
2023/11/14 05:22:16;;;;;;;16.77;2.20;;;11.10;99.90;;;;;;5033705;28;20040;-73
2023/11/14 05:24:42;;;;;;;28.30;3.35;;;11.10;99.90;;;;;;5032948;28;20029;-74
2023/11/14 05:27:09;;;;;;;23.02;2.92;;;11.10;99.90;;;;;;5033595;28;20025;-74
2023/11/14 05:29:34;;;;;;;25.75;4.13;;;11.10;99.90;;;;;;5031321;28;20025;-75
2023/11/14 05:32:00;;;;;;;30.40;5.45;;;11.20;99.90;;;;;;5032310;28;20037;-73
2023/11/14 05:34:26;;;;;;;23.80;3.67;;;11.10;99.90;;;;;;5033120;28;20037;-71
2023/11/14 05:36:52;;;;;;;24.75;3.55;;;11.10;99.90;;;;;;5032811;28;20109;-77
2023/11/14 05:39:18;;;;;;;33.92;4.63;;;11.10;99.90;;;;;;5032956;28;20036;-75
2023/11/14 05:41:43;;;;;;;28.30;4.40;;;11.00;99.90;;;;;;5032855;28;20018;-74
2023/11/14 05:44:09;;;;;;;32.58;4.60;;;11.10;99.90;;;;;;5032083;28;20074;-76
2023/11/14 05:46:35;;;;;;;29.40;4.20;;;11.10;99.90;;;;;;5032800;28;20029;-74
2023/11/14 05:49:01;;;;;;;27.17;4.35;;;11.00;99.90;;;;;;5032937;28;20038;-75
2023/11/14 05:51:27;;;;;;;21.00;3.63;;;11.10;99.90;;;;;;5033159;28;20029;-74
2023/11/14 05:53:53;;;;;;;24.63;3.60;;;11.00;99.90;;;;;;5031797;28;20028;-76
2023/11/14 05:56:19;;;;;;;33.45;4.28;;;11.00;99.90;;;;;;5033060;28;20053;-73
2023/11/14 05:58:44;;;;;;;31.05;4.82;;;11.00;99.90;;;;;;5033941;28;20044;-73
2023/11/14 06:01:11;;;;;;;28.45;3.83;;;11.10;99.90;;;;;;5033217;28;20098;-76
2023/11/14 06:03:37;;;;;;;27.23;3.97;;;11.10;99.90;;;;;;5032732;28;20095;-74
2023/11/14 06:06:04;;;;;;;23.60;2.92;;;11.10;99.90;;;;;;5032553;28;20553;-72
2023/11/14 06:08:30;;;;;;;31.45;4.03;;;11.10;99.90;;;;;;5032664;28;20132;-79
2023/11/14 06:10:58;;;;;;;25.45;3.25;;;11.10;99.90;;;;;;5032603;28;20027;-75
2023/11/14 06:13:23;;;;;;;23.23;3.50;;;11.10;99.90;;;;;;5032120;28;20021;-73
2023/11/14 06:15:50;;;;;;;22.70;3.80;;;11.10;99.90;;;;;;5032352;28;20043;-75
2023/11/14 06:18:15;;;;;;;25.67;3.90;;;11.10;99.90;;;;;;5033927;28;20045;-70
2023/11/14 06:20:42;;;;;;;19.40;3.28;;;11.10;99.90;;;;;;5032674;28;20040;-73
2023/11/14 06:23:08;;;;;;;24.85;4.13;;;11.10;99.90;;;;;;5032339;28;20038;-74
2023/11/14 06:25:33;;;;;;;23.35;3.47;;;11.20;99.90;;;;;;5031879;28;20104;-75
2023/11/14 06:27:59;;;;;;;17.63;3.08;;;11.10;99.90;;;;;;5032425;28;20032;-75
2023/11/14 06:30:25;;;;;;;26.10;3.80;;;11.10;99.90;;;;;;5038688;28;20030;-75
2023/11/14 06:32:51;;;;;;;26.60;3.30;;;11.10;99.90;;;;;;5031738;28;20473;-72
2023/11/14 06:35:16;;;;;;;23.40;3.60;;;11.20;99.90;;;;;;5036146;28;20380;-74
2023/11/14 06:37:45;;;;;;;26.00;3.80;;;11.10;99.90;;;;;;5032481;28;20030;-74
2023/11/14 06:40:11;;;;;;;25.77;3.47;;;11.10;99.90;;;;;;5031784;28;20018;-73
2023/11/14 06:42:38;;;;;;;21.00;2.92;;;11.20;99.90;;;;;;5032211;28;21401;-73
2023/11/14 06:45:07;;;;;;;20.27;3.55;;;11.20;99.90;;;;;;5032392;28;20042;-75
2023/11/14 06:47:32;;;;;;;23.08;3.53;;;11.20;99.90;;;;;;5031609;28;20125;-73
2023/11/14 06:49:58;;;;;;;20.58;4.03;;;11.20;99.90;;;;;;5032857;28;20045;-71
2023/11/14 06:52:24;;;;;;;23.75;3.75;;;11.20;99.90;;;;;;5032754;28;20040;-73
2023/11/14 06:54:50;;;;;;;21.35;3.65;;;11.20;99.90;;;;;;5030800;28;20025;-75
2023/11/14 06:57:15;;;;;;;21.92;3.70;;;11.20;99.90;;;;;;5037975;28;20043;-74
2023/11/14 06:59:41;;;;;;;12.15;2.40;;;11.20;99.90;;;;;;5032124;28;20044;-76
2023/11/14 07:02:08;;;;;;;27.20;3.80;;;11.20;99.90;;;;;;5031963;28;20044;-73
2023/11/14 07:04:36;;;;;;;16.85;3.20;;;11.20;99.90;;;;;;5031909;28;20056;-71
2023/11/14 07:07:04;;;;;;;17.33;2.88;;;11.20;99.90;;;;;;5031950;28;20033;-73
2023/11/14 07:09:29;;;;;;;14.48;2.63;;;11.30;99.90;;;;;;5031450;28;20026;-72
2023/11/14 07:11:55;;;;;;;24.20;3.45;;;11.20;99.90;;;;;;5031518;28;20029;-74
2023/11/14 07:14:24;;;;;;;26.35;3.67;;;11.20;99.90;;;;;;5031762;28;20056;-74
2023/11/14 07:16:50;;;;;;;21.55;3.30;;;11.30;99.90;;;;;;5030746;28;20064;-75
2023/11/14 07:19:16;;;;;;;13.70;2.38;;;11.30;99.90;;;;;;5031915;28;20049;-72
2023/11/14 07:21:45;;;;;;;23.45;3.55;;;11.20;99.90;;;;;;5038600;28;20048;-74
2023/11/14 07:24:11;;;;;;;22.55;3.47;;;11.30;99.90;;;;;;5031648;28;20024;-75
2023/11/14 07:26:38;;;;;;;22.05;2.88;;;11.30;99.90;;;;;;5030196;28;20048;-75
2023/11/14 07:29:06;;;;;;;16.65;2.85;;;11.30;99.90;;;;;;5033069;28;20042;-73
2023/11/14 07:31:31;;;;;;;12.55;2.35;;;11.30;99.90;;;;;;5034783;28;20461;-73
2023/11/14 07:33:57;;;;;;;23.33;3.20;;;11.30;99.90;;;;;;5032145;28;20477;-72
2023/11/14 07:36:24;;;;;;;9.30;2.15;;;11.20;99.90;;;;;;5030445;28;20029;-73
2023/11/14 07:38:50;;;;;;;18.42;2.67;;;11.20;99.90;;;;;;5032079;28;20079;-77
2023/11/14 07:41:16;;;;;;;21.25;2.67;;;11.20;99.90;;;;;;5037995;28;20034;-75
2023/11/14 07:43:42;;;;;;;14.07;2.28;;;11.20;99.90;;;;;;5030400;28;20211;-72
2023/11/14 07:46:09;;;;;;;16.88;2.80;;;11.20;99.90;;;;;;5031501;28;20045;-73
2023/11/14 07:48:35;;;;;;;17.17;3.40;;;11.10;99.90;;;;;;5033343;28;20038;-73
2023/11/14 07:51:02;;;;;;;16.90;2.83;;;11.10;99.90;;;;;;5030503;28;20029;-74
2023/11/14 07:53:28;;;;;;;19.15;3.30;;;11.10;99.90;;;;;;5037897;28;20101;-76
2023/11/14 07:55:54;;;;;;;18.63;3.25;;;11.00;99.90;;;;;;5037566;28;20049;-76
2023/11/14 07:58:29;;;;;;;20.10;2.75;;;11.00;99.90;;;;;;5030998;28;20014;-72
2023/11/14 08:00:58;;;;;;;21.77;3.05;;;10.80;99.90;;;;;;5031956;28;20052;-71
2023/11/14 08:03:23;;;;;;;33.33;4.15;;;10.70;99.90;;;;;;5030731;28;20069;-76
2023/11/14 08:05:49;;;;;;;31.23;3.88;;;10.70;99.90;;;;;;5031846;28;20025;-73
2023/11/14 08:08:15;;;;;;;29.30;3.83;;;10.60;99.90;;;;;;5030979;28;20084;-75
2023/11/14 08:10:40;;;;;;;29.33;3.65;;;10.60;99.90;;;;;;5037769;28;20037;-77
2023/11/14 08:13:07;;;;;;;34.50;3.78;;;10.50;99.90;;;;;;5031302;28;20429;-74
2023/11/14 08:15:33;;;;;;;28.90;3.70;;;10.50;99.90;;;;;;5031034;28;20041;-74
2023/11/14 08:17:59;;;;;;;34.28;4.43;;;10.50;99.90;;;;;;5031539;28;20092;-74
2023/11/14 08:20:27;;;;;;;45.78;5.00;;;10.50;99.90;;;;;;5036757;28;20151;-75
2023/11/14 08:22:53;;;;;;;49.40;5.55;;;10.50;99.90;;;;;;5030633;28;20026;-77
2023/11/14 08:25:20;;;;;;;45.10;5.25;;;10.50;99.90;;;;;;5035214;28;20014;-78
2023/11/14 08:27:49;;;;;;;42.03;5.28;;;10.50;99.90;;;;;;5030682;28;20057;-79
2023/11/14 08:30:15;;;;;;;48.60;6.40;;;10.50;99.90;;;;;;5030493;28;20055;-73
2023/11/14 08:32:42;;;;;;;41.72;5.15;;;10.50;99.90;;;;;;5030793;28;20132;-75
2023/11/14 08:35:09;;;;;;;43.20;4.70;;;10.50;99.90;;;;;;5030654;28;20025;-73
2023/11/14 08:37:35;;;;;;;36.63;4.68;;;10.60;99.90;;;;;;5029300;28;20042;-74
2023/11/14 08:40:02;;;;;;;41.25;5.50;;;10.60;99.90;;;;;;5029300;28;20026;-74
2023/11/14 08:42:29;;;;;;;49.50;5.25;;;10.60;99.90;;;;;;5036554;28;20037;-74
2023/11/14 08:44:55;;;;;;;42.20;5.93;;;10.70;99.90;;;;;;5030486;28;20482;-78
2023/11/14 08:47:22;;;;;;;37.42;5.05;;;10.60;99.90;;;;;;5027774;28;20029;-72
2023/11/14 08:49:48;;;;;;;47.38;5.18;;;10.70;99.90;;;;;;5034290;28;20019;-74
2023/11/14 08:52:14;;;;;;;38.03;5.63;;;10.70;99.90;;;;;;5033724;28;20036;-75
2023/11/14 08:54:41;;;;;;;34.78;4.68;;;10.70;99.90;;;;;;5034838;28;20021;-74
2023/11/14 08:57:06;;;;;;;35.58;5.20;;;10.80;99.90;;;;;;5034755;28;20033;-77
2023/11/14 08:59:32;;;;;;;40.53;5.68;;;10.70;99.90;;;;;;5034162;28;20029;-74
2023/11/14 09:01:58;;;;;;;30.27;5.00;;;10.70;99.90;;;;;;5033213;28;20045;-76
2023/11/14 09:04:23;;;;;;;41.03;4.97;;;10.70;99.90;;;;;;5035949;28;20068;-77
2023/11/14 09:06:49;;;;;;;46.63;5.40;;;10.70;99.90;;;;;;5032683;28;20085;-78
2023/11/14 09:09:14;;;;;;;41.08;5.68;;;10.80;99.90;;;;;;5033251;28;20026;-74
2023/11/14 09:11:40;;;;;;;40.17;4.45;;;10.70;99.90;;;;;;5034621;28;20090;-72
2023/11/14 09:14:07;;;;;;;35.20;4.53;;;10.60;99.90;;;;;;5033575;28;20077;-73
2023/11/14 09:16:33;;;;;;;34.40;4.30;;;10.60;99.90;;;;;;5032701;28;20104;-74
2023/11/14 09:18:59;;;;;;;33.97;4.60;;;10.60;99.90;;;;;;5033619;28;20041;-74
2023/11/14 09:21:26;;;;;;;46.67;4.85;;;10.50;99.90;;;;;;5033416;28;20414;-77
2023/11/14 09:23:52;;;;;;;35.95;4.60;;;10.40;99.90;;;;;;5034025;28;20057;-74
2023/11/14 09:26:17;;;;;;;39.40;4.43;;;10.50;99.90;;;;;;5034006;28;20029;-73
2023/11/14 09:28:43;;;;;;;40.67;5.32;;;10.60;99.90;;;;;;5038731;28;20113;-75
2023/11/14 09:31:08;;;;;;;46.45;5.50;;;10.70;99.90;;;;;;5028923;28;20604;-75
2023/11/14 09:33:35;;;;;;;32.45;4.70;;;10.70;99.90;;;;;;5031363;28;20451;-75
2023/11/14 09:36:01;;;;;;;60.70;6.40;;;10.80;99.90;;;;;;5033489;28;20048;-73
2023/11/14 09:38:27;;;;;;;50.80;5.82;;;10.80;99.90;;;;;;5033837;28;20065;-74
2023/11/14 09:40:53;;;;;;;52.63;7.18;;;10.80;99.90;;;;;;5033173;28;20025;-74
2023/11/14 09:43:21;;;;;;;52.47;7.78;;;10.90;99.90;;;;;;5035787;28;20045;-76
2023/11/14 09:45:50;;;;;;;52.38;6.90;;;11.00;99.90;;;;;;5032147;28;20490;-74
2023/11/14 09:48:16;;;;;;;34.42;3.88;;;11.10;99.90;;;;;;5050404;28;20496;-74
2023/11/14 09:50:45;;;;;;;39.47;5.50;;;11.20;99.90;;;;;;5031395;28;20037;-75
2023/11/14 09:53:13;;;;;;;33.00;4.80;;;11.20;99.90;;;;;;5032102;28;20026;-75
2023/11/14 09:55:40;;;;;;;25.90;4.80;;;11.30;99.90;;;;;;5031989;28;20026;-72
2023/11/14 09:58:06;;;;;;;44.83;5.57;;;11.30;99.90;;;;;;5033941;28;20069;-75
2023/11/14 10:00:33;;;;;;;46.65;6.68;;;11.30;99.90;;;;;;5033357;28;20116;-76
2023/11/14 10:02:59;;;;;;;33.60;4.80;;;11.30;99.90;;;;;;5032794;28;20099;-71
2023/11/14 10:05:25;;;;;;;33.42;4.55;;;11.40;99.90;;;;;;5032165;28;20476;-74
2023/11/14 10:07:50;;;;;;;27.75;4.57;;;11.40;99.90;;;;;;5033027;28;20479;-75
2023/11/14 10:10:16;;;;;;;29.35;4.80;;;11.40;99.90;;;;;;5032621;28;20033;-76
2023/11/14 10:12:43;;;;;;;37.03;4.43;;;11.40;99.90;;;;;;5033670;28;20073;-75
2023/11/14 10:15:09;;;;;;;32.53;5.07;;;11.40;99.90;;;;;;5033241;28;20065;-73
2023/11/14 10:17:53;;;;;;;24.92;4.07;;;11.40;99.90;;;;;;5036330;28;20143;-73
2023/11/14 10:20:19;;;;;;;36.63;4.50;;;11.40;99.90;;;;;;5032818;28;20030;-73
2023/11/14 10:22:53;;;;;;;32.00;4.45;;;11.40;99.90;;;;;;5030849;28;20296;-79
2023/11/14 10:25:32;;;;;;;34.83;4.87;;;11.60;99.90;;;;;;5032171;28;20644;-73
2023/11/14 10:28:04;;;;;;;35.17;4.78;;;11.70;99.90;;;;;;5032467;28;20018;-76
2023/11/14 10:30:42;;;;;;;39.88;5.88;;;11.80;99.90;;;;;;5032649;28;20079;-76
2023/11/14 10:33:09;;;;;;;40.40;4.78;;;11.80;99.90;;;;;;5032123;28;20389;-74
2023/11/14 10:35:36;;;;;;;39.85;5.63;;;11.90;99.90;;;;;;5031995;28;20080;-74
2023/11/14 10:38:21;;;;;;;31.00;4.80;;;11.90;99.90;;;;;;5030736;28;20030;-74
2023/11/14 10:40:47;;;;;;;33.92;4.38;;;11.90;99.90;;;;;;5032707;28;20024;-78
2023/11/14 10:43:36;;;;;;;31.83;4.78;;;12.00;99.90;;;;;;5032944;28;20045;-76
2023/11/14 10:46:10;;;;;;;41.83;6.28;;;11.90;99.90;;;;;;5032265;28;20170;-74
2023/11/14 10:48:35;;;;;;;25.58;4.80;;;11.90;99.90;;;;;;5032341;28;20038;-74
2023/11/14 10:51:03;;;;;;;35.72;4.55;;;11.90;99.90;;;;;;5037684;28;20044;-73
2023/11/14 10:53:32;;;;;;;25.20;3.80;;;12.00;99.90;;;;;;5029943;28;20022;-74
2023/11/14 10:56:00;;;;;;;28.75;4.10;;;12.20;99.90;;;;;;5032957;28;20030;-75
2023/11/14 10:58:26;;;;;;;30.58;4.05;;;12.40;99.90;;;;;;5033110;28;20104;-76
2023/11/14 11:00:52;;;;;;;27.30;3.60;;;12.60;99.90;;;;;;5031608;28;20030;-74
2023/11/14 11:03:18;;;;;;;23.80;3.92;;;12.70;99.90;;;;;;5030895;28;20038;-77
2023/11/14 11:05:47;;;;;;;28.73;4.60;;;12.80;99.90;;;;;;5030369;28;20072;-78
2023/11/14 11:08:13;;;;;;;16.80;3.08;;;12.90;99.90;;;;;;5036677;28;20474;-77
2023/11/14 11:10:39;;;;;;;19.90;3.90;;;13.00;99.90;;;;;;5035526;28;21074;-73
2023/11/14 11:13:23;;;;;;;23.08;3.38;;;13.00;99.90;;;;;;5026088;28;20699;-75
2023/11/14 11:15:50;;;;;;;21.55;4.00;;;13.00;99.90;;;;;;5029732;28;20159;-76
2023/11/14 11:18:23;;;;;;;21.48;2.97;;;13.20;99.90;;;;;;5032106;28;20033;-74
2023/11/14 11:20:50;;;;;;;17.77;2.85;;;13.20;99.90;;;;;;5031558;28;20085;-72
2023/11/14 11:23:16;;;;;;;26.73;3.67;;;13.20;99.90;;;;;;5032169;28;20124;-75
2023/11/14 11:25:43;;;;;;;19.48;3.70;;;13.20;99.90;;;;;;5030831;28;20069;-76
2023/11/14 11:28:21;;;;;;;21.42;2.92;;;13.30;99.90;;;;;;5031352;28;20370;-73
2023/11/14 11:31:05;;;;;;;16.17;3.00;;;13.50;99.90;;;;;;5030951;28;20041;-72
2023/11/14 11:33:44;;;;;;;16.17;2.28;;;13.40;99.90;;;;;;5031654;28;20076;-74
2023/11/14 11:36:27;;;;;;;13.38;2.42;;;13.20;99.90;;;;;;5031139;28;20041;-74
2023/11/14 11:38:54;;;;;;;11.32;2.38;;;13.10;99.90;;;;;;5031870;28;20030;-74
2023/11/14 11:41:20;;;;;;;17.92;3.35;;;13.10;99.90;;;;;;5030631;28;20022;-75
2023/11/14 11:43:45;;;;;;;19.17;3.05;;;13.10;99.90;;;;;;5028173;28;20056;-75
2023/11/14 11:46:40;;;;;;;19.08;2.97;;;13.20;99.90;;;;;;5028606;28;20022;-74
2023/11/14 11:49:24;;;;;;;;;;;13.10;99.90;;;;;;5029763;28;20029;-73
2023/11/14 11:52:07;;;;;;;19.42;3.08;;;12.90;99.90;;;;;;5030527;28;19927;-79
2023/11/14 11:54:36;;;;;;;21.15;3.28;;;12.70;99.90;;;;;;5031537;28;21082;-69
2023/11/14 11:57:14;;;;;;;19.20;3.38;;;12.60;99.90;;;;;;5030740;28;20022;-75
2023/11/14 11:59:40;;;;;;;29.27;3.67;;;12.60;99.90;;;;;;5031657;28;20025;-78
2023/11/14 12:02:12;;;;;;;29.27;4.00;;;12.40;99.90;;;;;;5031158;28;20033;-73
2023/11/14 12:04:38;;;;;;;26.17;3.45;;;12.50;99.90;;;;;;5046378;28;20060;-73
2023/11/14 12:07:04;;;;;;;30.77;3.85;;;12.50;99.90;;;;;;5029875;28;20030;-71
2023/11/14 12:09:33;;;;;;;29.30;4.10;;;12.40;99.90;;;;;;5031995;28;20037;-71
2023/11/14 12:11:59;;;;;;;26.23;3.60;;;12.30;99.90;;;;;;5031349;28;20026;-75
2023/11/14 12:14:28;;;;;;;31.20;4.60;;;12.30;99.90;;;;;;5030738;28;20041;-78
2023/11/14 12:16:54;;;;;;;36.50;4.78;;;12.10;99.90;;;;;;5045342;28;20065;-75
2023/11/14 12:19:19;;;;;;;38.30;4.47;;;12.00;99.90;;;;;;5031160;28;20033;-73
2023/11/14 12:21:45;;;;;;;40.65;4.68;;;11.90;99.90;;;;;;5036769;28;20022;-73
2023/11/14 12:24:12;;;;;;;22.85;3.28;;;11.70;99.90;;;;;;5030739;28;20101;-71
2023/11/14 12:26:39;;;;;;;13.18;2.38;;;11.60;99.90;;;;;;5034133;28;20773;-73
2023/11/14 12:29:09;;;;;;;11.10;2.10;;;11.20;99.90;;;;;;5032429;28;20024;-75
2023/11/14 12:31:36;;;;;;;15.90;2.00;;;10.90;99.90;;;;;;5033668;28;20108;-73
2023/11/14 12:34:04;;;;;;;15.55;2.28;;;10.60;99.90;;;;;;5033799;28;20085;-72
2023/11/14 12:36:30;;;;;;;20.05;3.17;;;10.50;99.90;;;;;;5034640;28;20022;-73
2023/11/14 12:39:11;;;;;;;23.13;3.95;;;10.60;99.90;;;;;;5032078;28;20100;-74